ADDS METAR Data INFO
IDs: Format: Raw Decoded Include TAF

Data at: 2011 UTC 19 Oct 2017

KMJX 191956Z AUTO 24010KT 10SM 22/07 A3014 RMK AO2 SLP214 T02170067 $
KMJX 191856Z AUTO 21010G15KT 10SM 22/08 A3016 RMK AO2 SLP218 T02170078 $
KMJX 191756Z AUTO 25011KT 10SM 22/09 A3019 RMK AO2 SLP230 T02170089 10217 20056 58026 $
KMJX 191656Z AUTO 22009KT 10SM 21/08 A3023 RMK AO2 SLP242 T02060083 $
KMJX 191556Z AUTO 24012KT 10SM 19/09 A3026 RMK AO2 SLP252 T01940089 $
KMJX 191456Z AUTO 24009KT 10SM 18/10 A3027 RMK AO2 SLP257 T01830100 58004 $
KMJX 191356Z AUTO 23009KT 10SM 16/11 A3029 RMK AO2 SLP262 T01610106 $
KMJX 191256Z AUTO 00000KT 10SM 11/09 A3029 RMK AO2 SLP263 T01060089 $
KMJX 191156Z AUTO 00000KT 10SM 06/04 A3028 RMK AO2 SLP261 T00560044 10067 20028 50000 $
KMJX 191056Z AUTO 00000KT 10SM 03/02 A3028 RMK AO2 SLP261 T00280017 $
KMJX 190956Z AUTO 00000KT 10SM 04/03 A3029 RMK AO2 SLP263 T00390028 $
KMJX 190856Z AUTO 00000KT 10SM 04/03 A3028 RMK AO2 SLP261 T00440033 55005 $
KMJX 190756Z AUTO 00000KT 10SM 05/04 A3028 RMK AO2 SLP259 T00500039 $
KMJX 190656Z AUTO 00000KT 10SM 06/05 A3029 RMK AO2 SLP263 T00610050 $
KMJX 190556Z AUTO 00000KT 10SM 07/06 A3030 RMK AO2 SLP266 T00670056 10128 20056 56007 $
KMJX 190456Z AUTO 00000KT 10SM 07/06 A3031 RMK AO2 SLP269 T00720061 402220011 $
KMJX 190356Z AUTO 00000KT 10SM 08/07 A3031 RMK AO2 SLP269 T00780067 $
KMJX 190256Z AUTO 00000KT 10SM 09/07 A3032 RMK AO2 SLP274 T00890072 50005 $
KMJX 190156Z AUTO 00000KT 10SM 10/08 A3033 RMK AO2 SLP276 T01000083 $
KMJX 190056Z AUTO 22004KT 10SM 12/09 A3032 RMK AO2 SLP272 T01170089 $
KMJX 182356Z AUTO 19003KT 10SM 11/09 A3030 RMK AO2 SLP269 T01060089 10222 20106 53007 $
KMJX 182256Z AUTO 00000KT 10SM 13/11 A3030 RMK AO2 SLP267 T01280106 $
KMJX 182156Z AUTO 22003KT 10SM 18/11 A3028 RMK AO2 SLP262 T01830106 $
KMJX 182056Z AUTO 25006KT 10SM 21/09 A3028 RMK AO2 SLP261 T02110089 56009 $
KMJX 181956Z AUTO 23008KT 10SM 22/08 A3029 RMK AO2 SLP264 T02170083 $
KMJX 181856Z AUTO VRB05KT 10SM 22/08 A3030 RMK AO2 SLP266 T02220083 $
KMJX 181756Z AUTO VRB04KT 10SM 22/09 A3031 RMK AO2 SLP270 T02170089 10217 20050 58014 $
KMJX 181656Z AUTO 31007KT 10SM 19/08 A3033 RMK AO2 SLP277 T01940083 $
KMJX 181556Z AUTO 29005KT 10SM 18/08 A3035 RMK AO2 SLP285 T01830078 $
KMJX 181456Z AUTO 29007KT 10SM 17/07 A3035 RMK AO2 SLP284 T01670067 58000 $
KMJX 181356Z AUTO 27007KT 10SM 14/06 A3035 RMK AO2 SLP285 T01440056 $
KMJX 181256Z AUTO 27006KT 10SM 11/06 A3036 RMK AO2 SLP287 T01110061 $
KMJX 181156Z AUTO 23003KT 10SM 05/04 A3035 RMK AO2 SLP285 T00500039 10050 20011 51010 $
KMJX 181056Z AUTO 26005KT 10SM 02/01 A3035 RMK AO2 SLP282 T00170011 FZRANO $
KMJX 180956Z AUTO 00000KT 10SM 02/01 A3034 RMK AO2 SLP279 T00220011 FZRANO $
KMJX 180856Z AUTO 22003KT 10SM 02/01 A3032 RMK AO2 SLP275 T00170006 55000 FZRANO $